Time;durP1;ratioP1;P1;durP2;ratioP2;P2;SDS_P1;SDS_P2;PMS_P1;PMS_P2;Temp;Humidity;BMP_temperature;BMP_pressure;BME280_temperature;BME280_humidity;BME280_pressure;Samples;Min_cycle;Max_cycle;Signal;HPM_P1;HPM_P2
2023/10/05 00:01:31;;;;;;;14.10;6.50;;;;;;;11.28;92.36;101332.80;110736;1209;98977;-60
2023/10/05 00:03:58;;;;;;;13.30;6.80;;;;;;;11.27;92.31;101330.33;110703;1214;99058;-61
2023/10/05 00:06:23;;;;;;;17.90;6.40;;;;;;;11.26;92.44;101331.77;110580;1214;139645;-60
2023/10/05 00:08:54;;;;;;;16.50;6.60;;;;;;;11.26;92.31;101324.47;110728;1214;99030;-61
2023/10/05 00:11:28;;;;;;;15.50;6.40;;;;;;;11.27;92.24;101331.23;110692;1209;139550;-61
2023/10/05 00:14:07;;;;;;;14.30;6.30;;;;;;;11.26;92.15;101333.02;110657;1213;112458;-60
2023/10/05 00:16:36;;;;;;;16.80;7.00;;;;;;;11.24;92.11;101330.23;110737;1214;99992;-61
2023/10/05 00:19:12;;;;;;;14.90;6.50;;;;;;;11.23;92.07;101333.14;110815;1211;106644;-61
2023/10/05 00:21:41;;;;;;;17.70;7.30;;;;;;;11.22;92.15;101336.77;110741;1218;99010;-60
2023/10/05 00:24:07;;;;;;;15.10;7.40;;;;;;;11.21;92.02;101337.34;110598;1210;138963;-61
2023/10/05 00:26:34;;;;;;;13.40;6.70;;;;;;;11.19;91.92;101339.55;110813;1210;98939;-61
2023/10/05 00:29:18;;;;;;;17.90;7.40;;;;;;;11.18;91.97;101336.20;110682;1211;139213;-60
2023/10/05 00:31:44;;;;;;;15.20;6.70;;;;;;;11.15;91.89;101329.67;110726;1214;108654;-60
2023/10/05 00:37:06;;;;;;;13.70;6.30;;;;;;;11.12;91.90;101331.23;110283;1219;98969;-63
2023/10/05 00:39:32;;;;;;;15.80;6.80;;;;;;;11.10;91.89;101325.38;110622;1214;99006;-63
2023/10/05 00:44:30;;;;;;;13.60;6.10;;;;;;;11.04;91.78;101316.98;110741;1214;99007;-64
2023/10/05 00:47:00;;;;;;;13.80;6.40;;;;;;;11.01;91.94;101311.19;110611;1214;139163;-62
2023/10/05 00:49:37;;;;;;;19.20;7.30;;;;;;;10.98;91.72;101307.00;110675;1214;113546;-63
2023/10/05 00:52:15;;;;;;;14.60;6.00;;;;;;;10.96;91.75;101312.64;110683;1211;100908;-63
2023/10/05 00:54:48;;;;;;;15.90;6.20;;;;;;;10.94;91.75;101317.34;110566;1211;140381;-64
2023/10/05 00:57:15;;;;;;;14.20;5.50;;;;;;;10.92;91.82;101313.14;110573;1209;100047;-63
2023/10/05 00:59:44;;;;;;;17.60;6.80;;;;;;;10.90;91.81;101306.95;110705;1213;139045;-63
2023/10/05 01:02:16;;;;;;;15.10;5.90;;;;;;;10.88;91.85;101303.08;110606;1209;114418;-63
2023/10/05 01:10:18;;;;;;;15.20;6.40;;;;;;;10.82;91.83;101314.36;110752;1214;99483;-63
2023/10/05 01:12:43;;;;;;;16.50;5.90;;;;;;;10.79;91.87;101310.16;110620;1214;138797;-63
2023/10/05 01:15:15;;;;;;;20.40;6.60;;;;;;;10.76;91.74;101305.44;110678;1209;99009;-63
2023/10/05 01:17:40;;;;;;;17.10;7.10;;;;;;;10.74;91.72;101307.30;110757;1211;138865;-63
2023/10/05 01:22:45;;;;;;;15.70;6.90;;;;;;;10.71;91.89;101306.51;110577;1214;140803;-63
2023/10/05 01:25:14;;;;;;;12.60;6.70;;;;;;;10.70;91.82;101302.08;110777;1211;97846;-63
2023/10/05 01:27:44;;;;;;;15.20;6.50;;;;;;;10.68;91.91;101291.94;110716;1214;112439;-63
2023/10/05 01:30:12;;;;;;;13.50;5.70;;;;;;;10.68;91.91;101293.20;110522;1209;139255;-63
2023/10/05 01:32:41;;;;;;;17.10;7.40;;;;;;;10.66;91.83;101290.94;110745;1214;108196;-63
2023/10/05 01:35:12;;;;;;;16.20;6.00;;;;;;;10.64;91.90;101284.22;110599;1214;140062;-63
2023/10/05 01:37:44;;;;;;;15.00;6.00;;;;;;;10.62;91.95;101279.80;110645;1210;99483;-63
2023/10/05 01:40:30;;;;;;;16.30;6.20;;;;;;;10.61;91.95;101276.11;110664;1210;112206;-63
2023/10/05 01:42:56;;;;;;;14.80;6.80;;;;;;;10.59;91.94;101276.88;110517;1210;139865;-63
2023/10/05 01:45:29;;;;;;;17.10;7.30;;;;;;;10.58;92.00;101275.67;110650;1214;105151;-62
2023/10/05 01:47:54;;;;;;;16.10;7.80;;;;;;;10.57;92.03;101275.19;110469;1219;139387;-64
2023/10/05 01:50:22;;;;;;;18.10;6.90;;;;;;;10.55;91.96;101268.44;110695;1214;99039;-64
2023/10/05 01:52:56;;;;;;;17.70;6.30;;;;;;;10.54;91.99;101269.73;110598;1214;140655;-64
2023/10/05 01:55:22;;;;;;;14.50;6.50;;;;;;;10.52;91.90;101267.11;110690;1216;99065;-63
2023/10/05 01:57:48;;;;;;;19.20;7.00;;;;;;;10.49;91.89;101265.60;110682;1214;97810;-63
2023/10/05 02:00:14;;;;;;;14.50;5.80;;;;;;;10.48;91.95;101264.04;110500;1214;139480;-63
2023/10/05 02:02:43;;;;;;;15.50;6.10;;;;;;;10.44;91.92;101257.73;110911;1211;99036;-63
2023/10/05 02:05:14;;;;;;;13.50;6.10;;;;;;;10.43;92.01;101254.55;110556;1212;139259;-63
2023/10/05 02:07:40;;;;;;;20.80;6.70;;;;;;;10.42;92.07;101252.98;110780;1211;107845;-63
2023/10/05 02:10:09;;;;;;;12.70;6.30;;;;;;;10.40;92.14;101249.85;110625;1212;98993;-63
2023/10/05 02:12:35;;;;;;;14.10;6.30;;;;;;;10.38;92.06;101251.52;110601;1214;139482;-64
2023/10/05 02:15:04;;;;;;;14.00;6.40;;;;;;;10.37;92.10;101252.63;110628;1214;99626;-63
2023/10/05 02:17:29;;;;;;;16.50;7.40;;;;;;;10.36;92.03;101253.02;110581;1214;139072;-63
2023/10/05 02:19:56;;;;;;;12.90;6.30;;;;;;;10.35;92.15;101249.86;110706;1211;99127;-63
2023/10/05 02:22:22;;;;;;;12.30;6.40;;;;;;;10.34;92.47;101247.91;110841;1209;97806;-63
2023/10/05 02:24:51;;;;;;;17.60;6.00;;;;;;;10.33;92.25;101244.36;110672;1213;138910;-63
2023/10/05 02:27:17;;;;;;;15.80;6.40;;;;;;;10.32;92.34;101243.86;110785;1214;99937;-64
2023/10/05 02:29:44;;;;;;;16.40;6.10;;;;;;;10.31;92.44;101236.20;110532;1211;140738;-64
2023/10/05 02:32:22;;;;;;;25.50;6.80;;;;;;;10.32;92.39;101234.05;110694;1213;100428;-63
2023/10/05 02:35:33;;;;;;;15.00;6.60;;;;;;;10.30;92.38;101228.39;110609;1214;139870;-63
2023/10/05 02:37:36;;;;;;;17.60;6.30;;;;;;;10.29;92.33;101229.49;110660;1214;114281;-64
2023/10/05 02:40:07;;;;;;;16.80;6.70;;;;;;;10.29;92.52;101221.83;110762;1211;100122;-64
2023/10/05 02:42:35;;;;;;;;;;;;;;;10.28;92.53;101216.84;110765;1214;139703;-63
2023/10/05 02:45:03;;;;;;;16.60;6.20;;;;;;;10.26;92.63;101213.35;110620;1209;99014;-63
2023/10/05 02:47:29;;;;;;;10.80;5.80;;;;;;;10.24;92.45;101209.65;110629;1214;139048;-63
2023/10/05 02:49:56;;;;;;;16.10;5.60;;;;;;;10.23;92.55;101206.11;110693;1210;99025;-63
2023/10/05 02:52:21;;;;;;;18.00;6.50;;;;;;;10.22;92.51;101200.98;110726;1213;99611;-63
2023/10/05 02:54:49;;;;;;;14.10;5.50;;;;;;;10.21;92.48;101203.70;110706;1210;138959;-63
2023/10/05 02:57:19;;;;;;;15.70;6.10;;;;;;;10.19;92.67;101201.40;110673;1213;99462;-63
2023/10/05 02:59:46;;;;;;;15.10;5.60;;;;;;;10.18;92.67;101202.68;110609;1214;139658;-63
2023/10/05 03:02:16;;;;;;;22.30;6.80;;;;;;;10.16;92.52;101203.29;110714;1211;98958;-63
2023/10/05 03:04:54;;;;;;;16.50;5.90;;;;;;;10.16;92.61;101197.58;110564;1214;139212;-63
2023/10/05 03:07:20;;;;;;;14.40;6.30;;;;;;;10.15;92.71;101194.91;110796;1226;99036;-63
2023/10/05 03:09:47;;;;;;;14.40;6.50;;;;;;;10.14;92.64;101187.64;110666;1214;99065;-64
2023/10/05 03:12:13;;;;;;;12.70;5.70;;;;;;;10.13;92.64;101181.96;110619;1214;139371;-63
2023/10/05 03:14:45;;;;;;;13.40;5.90;;;;;;;10.14;92.70;101185.33;110924;1211;97835;-63
2023/10/05 03:17:14;;;;;;;16.30;6.40;;;;;;;10.13;92.52;101178.39;110558;1211;139123;-63
2023/10/05 03:19:40;;;;;;;15.50;5.60;;;;;;;10.11;92.72;101177.39;110801;1209;98875;-63
2023/10/05 03:22:11;;;;;;;13.50;6.00;;;;;;;10.10;92.70;101177.40;110677;1214;99007;-63
2023/10/05 03:24:37;;;;;;;16.50;6.20;;;;;;;10.10;92.66;101179.02;110634;1214;139249;-63
2023/10/05 03:27:07;;;;;;;19.70;5.70;;;;;;;10.09;92.68;101176.55;110723;1212;99950;-63
2023/10/05 03:29:38;;;;;;;17.10;6.40;;;;;;;10.07;92.70;101178.92;110694;1214;139647;-63
2023/10/05 03:34:32;;;;;;;13.60;6.30;;;;;;;10.06;92.78;101174.13;110733;1212;113285;-63
2023/10/05 03:37:08;;;;;;;14.60;5.80;;;;;;;10.06;92.98;101178.77;110574;1214;139459;-63
2023/10/05 03:39:39;;;;;;;16.10;6.30;;;;;;;10.06;92.82;101175.21;110716;1214;108069;-63
2023/10/05 03:42:05;;;;;;;15.40;5.60;;;;;;;10.05;92.83;101173.29;110631;1213;140155;-64
2023/10/05 03:44:31;;;;;;;9.90;5.70;;;;;;;10.03;92.72;101177.64;110763;1214;99187;-63
2023/10/05 03:46:57;;;;;;;15.20;5.50;;;;;;;10.02;92.76;101170.35;110575;1214;139358;-63
2023/10/05 03:49:23;;;;;;;19.70;5.70;;;;;;;10.01;92.87;101167.17;110806;1214;98971;-63
2023/10/05 03:51:52;;;;;;;16.10;5.80;;;;;;;9.99;92.81;101165.27;110760;1211;99642;-63
2023/10/05 03:54:21;;;;;;;12.10;5.80;;;;;;;9.97;92.92;101165.87;110588;1213;140864;-63
2023/10/05 03:56:50;;;;;;;18.30;5.30;;;;;;;9.95;92.82;101163.79;110714;1214;113347;-63
2023/10/05 03:59:16;;;;;;;14.60;5.30;;;;;;;9.94;92.86;101167.05;110658;1212;139205;-65
2023/10/05 04:01:41;;;;;;;19.70;5.60;;;;;;;9.91;92.85;101169.27;110666;1214;98970;-63
2023/10/05 04:04:08;;;;;;;17.20;5.30;;;;;;;9.89;92.80;101165.23;110824;1214;99496;-64
2023/10/05 04:06:36;;;;;;;11.90;5.00;;;;;;;9.87;92.80;101160.46;110616;1214;139242;-63
2023/10/05 04:09:03;;;;;;;9.40;4.70;;;;;;;9.87;92.84;101153.52;110638;1211;100592;-63
2023/10/05 04:11:33;;;;;;;14.30;5.40;;;;;;;9.85;92.81;101147.15;110580;1222;140630;-63
2023/10/05 04:14:01;;;;;;;13.30;5.20;;;;;;;9.83;92.72;101145.27;110736;1214;99047;-63
2023/10/05 04:16:28;;;;;;;19.00;5.70;;;;;;;9.82;92.72;101145.84;110782;1210;99320;-63
2023/10/05 04:18:58;;;;;;;16.40;5.20;;;;;;;9.80;92.69;101144.83;110456;1214;140742;-63
2023/10/05 04:21:25;;;;;;;12.40;5.50;;;;;;;9.77;92.61;101144.56;110684;1214;100054;-63
2023/10/05 04:23:50;;;;;;;10.20;4.70;;;;;;;9.74;92.69;101141.27;110593;1209;139068;-64
2023/10/05 04:26:22;;;;;;;10.80;5.20;;;;;;;9.73;92.75;101141.11;110781;1214;99103;-64
2023/10/05 04:28:57;;;;;;;20.70;7.10;;;;;;;9.71;92.74;101141.34;110660;1216;140385;-64
2023/10/05 04:31:25;;;;;;;15.20;6.60;;;;;;;9.69;92.67;101141.06;110823;1214;100196;-63
2023/10/05 04:33:51;;;;;;;11.70;4.60;;;;;;;9.68;92.67;101143.96;110779;1211;107313;-64
2023/10/05 04:36:19;;;;;;;13.40;4.90;;;;;;;9.65;92.82;101142.96;110635;1214;139064;-64
2023/10/05 04:38:45;;;;;;;10.60;5.10;;;;;;;9.64;92.77;101144.41;110807;1214;99047;-64
2023/10/05 04:41:13;;;;;;;15.00;4.90;;;;;;;9.65;92.79;101147.63;110464;1226;140928;-64
2023/10/05 04:43:43;;;;;;;18.10;5.50;;;;;;;9.67;92.77;101145.77;110876;1214;99029;-63
2023/10/05 04:46:09;;;;;;;13.20;5.70;;;;;;;9.70;92.73;101137.99;110676;1214;108369;-63
2023/10/05 04:48:38;;;;;;;14.60;4.40;;;;;;;9.72;92.76;101136.14;110563;1211;139526;-63
2023/10/05 04:51:06;;;;;;;13.80;5.00;;;;;;;9.73;92.81;101134.49;110636;1210;99072;-63
2023/10/05 04:53:32;;;;;;;12.30;5.20;;;;;;;9.74;92.89;101135.20;110673;1214;140151;-64
2023/10/05 04:56:14;;;;;;;19.30;5.30;;;;;;;9.73;92.95;101125.39;110783;1214;99665;-64
2023/10/05 05:01:35;;;;;;;12.60;5.20;;;;;;;9.74;92.82;101128.08;110573;1214;99465;-64
2023/10/05 05:04:27;;;;;;;10.40;4.60;;;;;;;9.74;92.92;101128.08;110591;1209;99578;-64
2023/10/05 05:06:58;;;;;;;14.80;4.90;;;;;;;9.73;92.84;101123.98;110372;1214;138999;-64
2023/10/05 05:09:29;;;;;;;12.70;5.50;;;;;;;9.73;92.97;101127.92;110820;1209;99216;-64
2023/10/05 05:12:03;;;;;;;;;;;;;;;9.72;92.94;101128.65;110508;1214;139000;-64
2023/10/05 05:14:33;;;;;;;18.50;4.60;;;;;;;9.71;93.08;101127.61;110784;1214;99014;-64
2023/10/05 05:17:04;;;;;;;12.20;4.90;;;;;;;9.72;93.16;101132.75;110596;1210;139814;-64
2023/10/05 05:19:30;;;;;;;12.40;4.90;;;;;;;9.74;93.08;101129.48;110926;1213;112372;-65
2023/10/05 05:22:05;;;;;;;13.40;4.80;;;;;;;9.75;93.00;101125.69;110661;1210;99046;-63
2023/10/05 05:24:31;;;;;;;18.30;6.10;;;;;;;9.76;92.98;101127.98;110438;1215;139022;-64
2023/10/05 05:29:40;;;;;;;13.40;4.40;;;;;;;9.78;92.91;101117.04;110517;1221;139976;-64
2023/10/05 05:32:19;;;;;;;18.10;5.30;;;;;;;9.78;92.97;101112.95;110645;1223;100855;-64
2023/10/05 05:34:44;;;;;;;15.30;5.30;;;;;;;9.80;92.98;101111.81;110746;1215;100116;-64
2023/10/05 05:37:14;;;;;;;20.20;6.20;;;;;;;9.81;93.07;101109.46;110650;1209;138963;-64
2023/10/05 05:39:40;;;;;;;15.20;5.10;;;;;;;9.83;93.02;101104.20;110716;1222;99029;-64
2023/10/05 05:42:15;;;;;;;11.20;4.70;;;;;;;9.85;93.00;101101.84;110619;1214;139142;-64
2023/10/05 05:44:41;;;;;;;13.70;5.40;;;;;;;9.88;93.03;101098.32;110810;1215;113141;-64
2023/10/05 05:47:09;;;;;;;12.60;5.00;;;;;;;9.93;93.12;101096.55;110550;1210;139382;-64
2023/10/05 05:49:39;;;;;;;14.70;4.70;;;;;;;9.99;93.10;101094.58;110730;1209;99029;-64
2023/10/05 05:52:05;;;;;;;19.70;4.90;;;;;;;10.04;93.14;101095.83;110706;1214;98976;-64
2023/10/05 05:54:33;;;;;;;16.60;5.40;;;;;;;10.10;93.17;101092.77;110813;1213;139092;-64
2023/10/05 05:56:58;;;;;;;13.50;4.50;;;;;;;10.16;93.19;101096.48;110735;1214;99058;-64
2023/10/05 05:59:24;;;;;;;11.40;5.00;;;;;;;10.24;93.31;101094.64;110735;1209;140565;-64
2023/10/05 06:01:52;;;;;;;16.10;4.80;;;;;;;10.31;93.08;101090.98;110756;1214;99066;-64
2023/10/05 06:04:17;;;;;;;16.40;5.20;;;;;;;10.36;93.28;101088.50;110789;1215;98966;-64
2023/10/05 06:06:44;;;;;;;16.90;5.90;;;;;;;10.41;93.31;101085.98;110702;1214;139087;-63
2023/10/05 06:09:11;;;;;;;13.00;4.50;;;;;;;10.47;93.18;101086.99;110833;1210;98948;-64
2023/10/05 06:11:40;;;;;;;9.80;4.30;;;;;;;10.54;93.26;101091.75;110525;1214;139854;-64
2023/10/05 06:14:06;;;;;;;12.40;5.30;;;;;;;10.60;93.15;101086.33;110700;1209;97828;-64
2023/10/05 06:16:34;;;;;;;13.30;4.60;;;;;;;10.66;93.17;101082.90;110744;1215;99028;-63
2023/10/05 06:19:00;;;;;;;10.00;4.40;;;;;;;10.73;93.20;101080.87;110706;1214;140035;-64
2023/10/05 06:21:25;;;;;;;17.40;4.70;;;;;;;10.78;93.30;101078.69;110837;1210;98928;-64
2023/10/05 06:23:51;;;;;;;16.60;4.30;;;;;;;10.84;93.03;101075.28;110823;1209;139726;-64
2023/10/05 06:26:16;;;;;;;10.80;4.90;;;;;;;10.88;92.91;101071.89;110864;1214;99054;-64
2023/10/05 06:28:42;;;;;;;13.70;4.10;;;;;;;10.92;92.99;101070.11;110951;1209;99013;-64
2023/10/05 06:31:10;;;;;;;10.10;4.10;;;;;;;10.99;93.11;101067.36;110541;1214;140540;-64
2023/10/05 06:33:37;;;;;;;13.80;4.40;;;;;;;11.04;93.05;101066.08;110850;1209;99464;-63
2023/10/05 06:36:03;;;;;;;11.20;4.30;;;;;;;11.10;93.03;101067.66;110646;1215;140627;-63
2023/10/05 06:38:28;;;;;;;10.50;3.80;;;;;;;11.15;92.87;101058.50;110823;1209;98999;-64
2023/10/05 06:40:54;;;;;;;15.00;5.10;;;;;;;11.20;92.85;101058.13;110627;1213;140391;-63
2023/10/05 06:43:21;;;;;;;10.50;4.50;;;;;;;11.23;92.67;101063.19;110788;1215;99044;-63
2023/10/05 06:45:48;;;;;;;17.80;4.40;;;;;;;11.26;92.60;101060.57;110741;1215;99028;-63
2023/10/05 06:48:14;;;;;;;11.90;4.80;;;;;;;11.31;92.69;101061.99;110505;1215;138864;-63
2023/10/05 06:50:43;;;;;;;13.40;3.90;;;;;;;11.35;92.42;101066.46;110735;1215;99103;-67
2023/10/05 06:53:10;;;;;;;14.70;4.60;;;;;;;11.41;92.25;101064.45;110258;1214;139751;-64
2023/10/05 06:55:36;;;;;;;14.80;4.50;;;;;;;11.46;92.20;101064.08;110471;1210;113030;-64
2023/10/05 06:58:03;;;;;;;11.50;4.60;;;;;;;11.49;92.19;101053.58;110641;1215;100306;-67
2023/10/05 07:00:29;;;;;;;10.30;4.40;;;;;;;11.51;92.18;101058.66;110542;1209;139708;-64
2023/10/05 07:02:55;;;;;;;16.90;4.00;;;;;;;11.52;91.84;101055.06;110584;1210;98957;-64
2023/10/05 07:05:20;;;;;;;13.50;5.60;;;;;;;11.54;91.75;101063.73;110373;1214;139665;-67
2023/10/05 07:07:46;;;;;;;14.10;4.90;;;;;;;11.56;91.45;101063.65;110478;1213;99051;-66
2023/10/05 07:10:17;;;;;;;13.00;5.00;;;;;;;11.59;91.50;101059.98;110578;1209;100136;-67
2023/10/05 07:12:46;;;;;;;15.50;5.00;;;;;;;11.63;91.26;101061.95;110458;1214;140212;-64
2023/10/05 07:15:21;;;;;;;12.60;4.50;;;;;;;11.65;91.15;101053.11;110824;1209;112844;-65
2023/10/05 07:17:50;;;;;;;16.50;4.60;;;;;;;11.67;91.11;101046.91;110451;1209;140403;-66
2023/10/05 07:20:16;;;;;;;14.30;4.20;;;;;;;11.69;91.03;101046.84;110600;1209;107596;-65
2023/10/05 07:22:44;;;;;;;13.30;4.10;;;;;;;11.70;90.76;101044.63;110712;1215;99009;-66
2023/10/05 07:25:10;;;;;;;13.70;4.60;;;;;;;11.73;90.90;101044.35;110554;1215;140545;-68
2023/10/05 07:27:37;;;;;;;9.10;4.50;;;;;;;11.77;90.81;101051.90;110504;1214;99006;-63
2023/10/05 07:30:07;;;;;;;16.90;4.90;;;;;;;11.79;90.57;101054.33;110373;1213;139993;-63
2023/10/05 07:32:36;;;;;;;19.70;5.10;;;;;;;11.81;90.48;101056.39;110605;1215;99001;-64
2023/10/05 07:35:02;;;;;;;12.20;4.90;;;;;;;11.85;90.49;101054.80;110445;1215;140376;-63
2023/10/05 07:37:27;;;;;;;16.00;4.90;;;;;;;11.90;90.31;101056.58;110620;1209;99000;-63
2023/10/05 07:39:53;;;;;;;11.70;4.20;;;;;;;11.94;90.36;101057.63;110595;1209;99001;-63
2023/10/05 07:42:18;;;;;;;11.50;5.20;;;;;;;11.99;90.30;101052.41;110444;1213;140697;-63
2023/10/05 07:44:44;;;;;;;11.20;4.00;;;;;;;12.02;90.11;101056.38;110629;1209;98934;-63
2023/10/05 07:47:13;;;;;;;9.90;4.60;;;;;;;12.06;90.01;101052.30;110425;1215;141134;-63
2023/10/05 07:49:41;;;;;;;18.50;5.70;;;;;;;12.10;89.93;101047.29;110560;1223;107408;-62
2023/10/05 07:52:10;;;;;;;15.40;4.50;;;;;;;12.13;89.70;101050.94;110685;1209;99280;-63
2023/10/05 07:54:38;;;;;;;15.20;4.80;;;;;;;12.16;89.64;101051.68;110533;1215;139416;-63
2023/10/05 07:57:09;;;;;;;16.00;4.40;;;;;;;12.20;89.60;101057.21;110510;1209;99054;-63
2023/10/05 07:59:43;;;;;;;13.40;4.50;;;;;;;12.24;89.34;101057.61;110614;1209;138979;-64
2023/10/05 08:02:12;;;;;;;13.40;4.40;;;;;;;12.27;88.99;101057.45;110456;1209;108079;-64
2023/10/05 08:04:38;;;;;;;10.00;4.30;;;;;;;12.33;89.08;101059.17;110618;1214;99093;-63
2023/10/05 08:07:03;;;;;;;15.00;4.80;;;;;;;12.38;88.87;101060.20;110468;1215;138728;-63
2023/10/05 08:09:29;;;;;;;19.90;4.70;;;;;;;12.42;88.49;101060.94;110708;1215;99003;-63
2023/10/05 08:11:56;;;;;;;10.10;4.30;;;;;;;12.47;88.51;101057.14;110682;1213;140100;-64
2023/10/05 08:14:24;;;;;;;10.40;5.00;;;;;;;12.50;88.01;101058.40;110778;1209;98946;-64
2023/10/05 08:16:50;;;;;;;17.20;5.60;;;;;;;12.51;87.32;101068.92;110652;1210;139241;-63
2023/10/05 08:19:16;;;;;;;13.10;4.30;;;;;;;12.54;87.62;101067.71;110797;1215;99017;-64
2023/10/05 08:21:42;;;;;;;17.10;4.70;;;;;;;12.59;87.40;101068.04;110691;1215;99018;-64
2023/10/05 08:24:08;;;;;;;12.90;4.30;;;;;;;12.66;87.25;101063.24;110489;1209;139575;-64
2023/10/05 08:26:34;;;;;;;11.10;4.10;;;;;;;12.74;87.03;101073.46;110741;1214;99022;-64
2023/10/05 08:28:59;;;;;;;10.70;4.30;;;;;;;12.79;86.80;101059.79;110557;1210;141306;-64
2023/10/05 08:31:25;;;;;;;13.80;4.40;;;;;;;12.85;86.69;101056.09;110765;1215;106584;-64
2023/10/05 08:33:54;;;;;;;13.60;4.80;;;;;;;12.93;86.65;101056.83;110623;1213;99095;-64
2023/10/05 08:36:20;;;;;;;13.00;6.20;;;;;;;12.95;86.43;101041.80;110567;1213;139686;-64
2023/10/05 08:38:48;;;;;;;22.40;12.20;;;;;;;13.01;85.81;101041.31;110764;1213;98830;-64
2023/10/05 08:41:26;;;;;;;29.60;19.00;;;;;;;13.06;86.07;101039.33;110537;1209;141135;-66
2023/10/05 08:43:54;;;;;;;29.20;20.40;;;;;;;13.12;86.09;101038.80;110740;1209;109466;-62
2023/10/05 08:46:21;;;;;;;20.70;11.40;;;;;;;13.17;85.74;101032.31;110713;1210;99057;-64
2023/10/05 08:48:46;;;;;;;22.40;10.90;;;;;;;13.20;85.11;101039.71;110457;1214;140669;-64
2023/10/05 08:51:12;;;;;;;17.10;10.00;;;;;;;13.19;84.97;101033.52;110783;1214;98951;-64
2023/10/05 08:53:59;;;;;;;14.40;5.80;;;;;;;13.23;85.20;101038.52;110502;1215;139531;-64
2023/10/05 08:56:25;;;;;;;15.00;4.20;;;;;;;13.29;84.39;101045.93;110619;1213;98949;-63
2023/10/05 08:58:52;;;;;;;15.90;5.40;;;;;;;13.33;84.04;101061.36;110570;1210;139975;-64
2023/10/05 09:01:29;;;;;;;13.20;4.80;;;;;;;13.38;84.01;101056.64;110656;1214;99035;-65
2023/10/05 09:04:11;;;;;;;16.20;4.70;;;;;;;13.44;83.84;101059.73;110624;1214;99849;-64
2023/10/05 09:06:56;;;;;;;16.60;4.40;;;;;;;13.50;83.69;101050.33;110506;1209;140957;-64
2023/10/05 09:09:27;;;;;;;14.50;4.70;;;;;;;13.55;83.58;101041.59;110463;1215;98989;-64
2023/10/05 09:11:52;;;;;;;16.70;4.70;;;;;;;13.61;83.62;101046.67;110558;1214;140981;-64
2023/10/05 09:14:27;;;;;;;10.90;4.00;;;;;;;13.64;83.22;101038.80;110772;1209;99784;-65
2023/10/05 09:17:04;;;;;;;14.60;4.40;;;;;;;13.70;83.45;101033.52;110613;1215;140429;-65
2023/10/05 09:19:33;;;;;;;13.10;3.80;;;;;;;13.75;82.85;101036.11;110712;1210;107990;-64
2023/10/05 09:24:24;;;;;;;10.50;4.00;;;;;;;13.81;82.87;101039.04;110629;1213;141624;-65
2023/10/05 09:26:57;;;;;;;14.80;4.00;;;;;;;13.83;82.60;101034.98;110633;1215;99047;-66
2023/10/05 09:29:32;;;;;;;13.40;4.80;;;;;;;13.87;82.60;101038.41;110622;1213;139134;-65
2023/10/05 09:31:59;;;;;;;14.30;4.50;;;;;;;13.90;82.47;101041.30;110676;1225;99016;-65
2023/10/05 09:34:36;;;;;;;16.10;5.20;;;;;;;13.92;82.20;101040.08;110883;1214;99040;-65
2023/10/05 09:37:07;;;;;;;12.80;3.60;;;;;;;13.93;81.97;101039.48;110540;1215;139427;-64
2023/10/05 09:39:42;;;;;;;;;;;;;;;13.95;82.05;101034.55;110660;1214;99885;-64
2023/10/05 09:42:13;;;;;;;13.40;4.60;;;;;;;13.97;82.09;101045.96;110459;1214;125676;-64
2023/10/05 09:44:53;;;;;;;17.80;4.50;;;;;;;13.98;81.74;101042.31;110717;1210;99038;-64
2023/10/05 09:47:37;;;;;;;12.60;3.90;;;;;;;13.97;81.55;101045.08;110555;1214;139156;-65
2023/10/05 09:50:09;;;;;;;20.70;4.90;;;;;;;13.94;81.39;101039.27;110639;1209;113132;-65
2023/10/05 09:52:37;;;;;;;17.90;5.00;;;;;;;13.93;81.35;101040.20;110735;1222;99578;-66
2023/10/05 09:55:06;;;;;;;14.30;4.80;;;;;;;13.92;81.31;101031.14;110596;1215;139913;-66
2023/10/05 09:57:46;;;;;;;12.10;4.40;;;;;;;13.93;81.27;101033.92;110849;1209;98948;-66
2023/10/05 10:00:30;;;;;;;20.60;5.30;;;;;;;13.93;81.22;101031.23;110538;1210;139353;-66
2023/10/05 10:03:00;;;;;;;14.90;4.90;;;;;;;13.92;81.24;101029.88;110747;1209;113207;-65
2023/10/05 10:05:35;;;;;;;17.40;5.70;;;;;;;13.95;81.30;101029.51;110674;1214;139987;-65
2023/10/05 10:08:10;;;;;;;15.50;5.00;;;;;;;14.00;81.11;101033.79;110788;1215;108163;-65
2023/10/05 10:10:40;;;;;;;15.00;4.80;;;;;;;14.06;81.16;101040.13;110794;1213;100353;-65
2023/10/05 10:13:11;;;;;;;13.80;4.70;;;;;;;14.13;81.25;101039.92;110570;1209;140745;-65
2023/10/05 10:15:45;;;;;;;;;;;;;;;14.22;80.99;101040.55;110721;1214;113118;-65
2023/10/05 10:18:16;;;;;;;16.90;5.00;;;;;;;14.29;81.01;101031.00;110843;1214;126093;-63
2023/10/05 10:20:47;;;;;;;20.40;5.40;;;;;;;14.43;81.25;101016.63;110571;1209;108879;-63
2023/10/05 10:23:21;;;;;;;14.00;4.30;;;;;;;14.56;80.84;101020.95;110635;1210;140917;-64
2023/10/05 10:25:50;;;;;;;15.30;4.80;;;;;;;14.65;81.09;101018.88;110590;1209;98141;-64
2023/10/05 10:31:18;;;;;;;16.10;5.00;;;;;;;14.92;81.18;101034.98;110604;1209;139515;-63
2023/10/05 10:33:50;;;;;;;13.10;4.50;;;;;;;14.99;79.84;101034.63;110692;1215;108107;-64
2023/10/05 10:36:19;;;;;;;19.20;4.80;;;;;;;14.98;79.95;101042.20;110683;1215;139317;-63
2023/10/05 10:38:46;;;;;;;10.00;4.50;;;;;;;14.99;80.07;101043.96;110580;1215;99599;-63
2023/10/05 10:41:15;;;;;;;12.60;4.80;;;;;;;14.98;79.87;101031.08;110657;1215;139164;-64
2023/10/05 10:43:49;;;;;;;15.30;4.10;;;;;;;14.96;79.61;101035.13;110726;1214;99696;-64
2023/10/05 10:46:29;;;;;;;16.50;4.90;;;;;;;14.98;79.38;101039.54;110696;1215;107820;-64
2023/10/05 10:48:59;;;;;;;25.90;4.30;;;;;;;15.02;79.21;101042.02;110592;1209;140835;-64
2023/10/05 10:51:31;;;;;;;9.30;3.70;;;;;;;15.05;78.86;101047.20;110757;1215;98632;-64
2023/10/05 10:53:59;;;;;;;14.30;3.80;;;;;;;15.09;78.15;101043.02;110571;1213;139406;-64
2023/10/05 10:56:27;;;;;;;7.50;3.70;;;;;;;15.18;77.85;101031.37;110740;1210;98987;-65
2023/10/05 10:59:10;;;;;;;8.10;3.30;;;;;;;15.28;77.28;101025.60;110595;1215;139923;-64
2023/10/05 11:01:43;;;;;;;9.20;3.30;;;;;;;15.38;76.93;101028.23;110657;1210;99036;-65
2023/10/05 11:04:26;;;;;;;8.50;3.70;;;;;;;15.46;76.27;101027.77;110590;1214;99021;-66
2023/10/05 11:07:07;;;;;;;20.00;5.00;;;;;;;15.58;76.28;101029.48;110642;1214;139480;-64
2023/10/05 11:09:52;;;;;;;9.90;4.20;;;;;;;15.66;75.60;101037.80;110736;1209;100029;-64
2023/10/05 11:12:21;;;;;;;8.30;3.70;;;;;;;15.72;75.59;101034.59;110512;1209;139332;-64
2023/10/05 11:14:47;;;;;;;12.40;3.30;;;;;;;15.70;74.82;101030.52;110867;1209;99032;-65
2023/10/05 11:17:30;;;;;;;13.40;4.10;;;;;;;15.66;74.57;101040.69;110573;1214;139742;-64
2023/10/05 11:19:58;;;;;;;12.10;3.40;;;;;;;15.66;74.86;101041.05;110670;1209;112294;-63
2023/10/05 11:22:23;;;;;;;13.10;4.30;;;;;;;15.64;74.40;101050.38;110796;1215;100054;-63
2023/10/05 11:25:15;;;;;;;9.30;3.90;;;;;;;15.55;74.02;101040.63;110618;1209;139550;-64
2023/10/05 11:27:48;;;;;;;9.00;3.20;;;;;;;15.45;74.10;101038.11;110740;1213;99062;-64
2023/10/05 11:30:18;;;;;;;13.80;3.90;;;;;;;15.41;74.17;101038.92;110647;1213;139855;-64
2023/10/05 11:32:45;;;;;;;11.70;4.10;;;;;;;15.35;74.06;101041.77;110739;1214;112599;-63
2023/10/05 11:35:13;;;;;;;14.50;4.00;;;;;;;15.27;73.69;101040.57;110663;1215;139773;-64
2023/10/05 11:37:39;;;;;;;16.40;3.60;;;;;;;15.21;73.44;101044.71;110741;1209;108120;-64
2023/10/05 11:40:07;;;;;;;10.00;3.70;;;;;;;15.16;73.17;101045.15;110703;1214;98957;-63
2023/10/05 11:42:41;;;;;;;12.30;3.60;;;;;;;15.13;73.64;101036.87;110735;1209;141087;-64
2023/10/05 11:45:16;;;;;;;15.80;4.00;;;;;;;15.11;73.62;101032.15;110736;1213;112603;-64